sensor_id;sensor_type;location;lat;lon;timestamp;noise_LAeq;noise_LA_min;noise_LA_max;noise_LA01;noise_LA95
69615;Laerm;56821;52.486;4.680;2023-03-01T00:00:07;34.46;32.47;37.46;;
69615;Laerm;56821;52.486;4.680;2023-03-01T00:00:18;34.48;32.50;37.57;;
69615;Laerm;56821;52.486;4.680;2023-03-01T00:00:28;32.74;30.55;34.76;;
69615;Laerm;56821;52.486;4.680;2023-03-01T00:00:38;33.10;30.91;35.86;;
69615;Laerm;56821;52.486;4.680;2023-03-01T00:00:49;32.39;30.94;34.10;;
69615;Laerm;56821;52.486;4.680;2023-03-01T00:01:09;34.13;31.18;44.06;;
69615;Laerm;56821;52.486;4.680;2023-03-01T00:01:21;34.06;31.79;37.64;;
69615;Laerm;56821;52.486;4.680;2023-03-01T00:01:31;34.48;32.29;40.09;;
69615;Laerm;56821;52.486;4.680;2023-03-01T00:01:41;35.37;33.28;36.79;;
69615;Laerm;56821;52.486;4.680;2023-03-01T00:01:52;34.37;32.46;37.39;;
69615;Laerm;56821;52.486;4.680;2023-03-01T00:02:02;33.68;31.55;36.34;;
69615;Laerm;56821;52.486;4.680;2023-03-01T00:02:12;32.01;30.16;33.38;;
69615;Laerm;56821;52.486;4.680;2023-03-01T00:02:22;32.61;30.56;34.35;;
69615;Laerm;56821;52.486;4.680;2023-03-01T00:02:33;35.00;30.75;38.91;;
69615;Laerm;56821;52.486;4.680;2023-03-01T00:02:43;33.33;31.18;37.00;;
69615;Laerm;56821;52.486;4.680;2023-03-01T00:02:53;34.57;32.49;36.84;;
69615;Laerm;56821;52.486;4.680;2023-03-01T00:03:03;32.25;30.03;34.31;;
69615;Laerm;56821;52.486;4.680;2023-03-01T00:03:14;32.74;30.70;34.72;;
69615;Laerm;56821;52.486;4.680;2023-03-01T00:03:24;33.30;31.67;35.11;;
69615;Laerm;56821;52.486;4.680;2023-03-01T00:03:34;34.18;31.85;36.90;;
69615;Laerm;56821;52.486;4.680;2023-03-01T00:03:45;35.28;32.51;41.31;;
69615;Laerm;56821;52.486;4.680;2023-03-01T00:03:55;33.82;31.51;36.57;;
69615;Laerm;56821;52.486;4.680;2023-03-01T00:04:06;33.99;31.95;35.63;;
69615;Laerm;56821;52.486;4.680;2023-03-01T00:04:16;34.64;32.54;36.56;;
69615;Laerm;56821;52.486;4.680;2023-03-01T00:04:26;32.96;31.45;36.27;;
69615;Laerm;56821;52.486;4.680;2023-03-01T00:04:37;33.14;30.46;36.47;;
69615;Laerm;56821;52.486;4.680;2023-03-01T00:04:47;35.70;32.46;40.61;;
69615;Laerm;56821;52.486;4.680;2023-03-01T00:04:58;34.19;32.12;37.61;;
69615;Laerm;56821;52.486;4.680;2023-03-01T00:05:08;34.19;32.17;37.26;;
69615;Laerm;56821;52.486;4.680;2023-03-01T00:05:18;34.29;31.48;38.48;;
69615;Laerm;56821;52.486;4.680;2023-03-01T00:05:28;32.34;30.69;35.25;;
69615;Laerm;56821;52.486;4.680;2023-03-01T00:05:45;32.96;30.92;36.29;;
69615;Laerm;56821;52.486;4.680;2023-03-01T00:05:55;32.04;29.88;34.76;;
69615;Laerm;56821;52.486;4.680;2023-03-01T00:06:06;32.18;29.43;38.09;;
69615;Laerm;56821;52.486;4.680;2023-03-01T00:06:16;32.66;30.29;37.17;;
69615;Laerm;56821;52.486;4.680;2023-03-01T00:06:27;31.40;29.38;34.13;;
69615;Laerm;56821;52.486;4.680;2023-03-01T00:06:38;31.88;28.88;35.28;;
69615;Laerm;56821;52.486;4.680;2023-03-01T00:06:48;30.06;28.65;31.25;;
69615;Laerm;56821;52.486;4.680;2023-03-01T00:06:58;30.11;28.76;33.00;;
69615;Laerm;56821;52.486;4.680;2023-03-01T00:07:08;29.85;28.76;31.32;;
69615;Laerm;56821;52.486;4.680;2023-03-01T00:07:18;32.78;28.61;37.55;;
69615;Laerm;56821;52.486;4.680;2023-03-01T00:07:29;30.69;28.92;32.80;;
69615;Laerm;56821;52.486;4.680;2023-03-01T00:07:39;31.40;29.78;34.04;;
69615;Laerm;56821;52.486;4.680;2023-03-01T00:07:52;32.36;30.05;34.79;;
69615;Laerm;56821;52.486;4.680;2023-03-01T00:08:02;38.91;28.79;55.27;;
69615;Laerm;56821;52.486;4.680;2023-03-01T00:08:12;45.29;29.69;58.22;;
69615;Laerm;56821;52.486;4.680;2023-03-01T00:08:23;31.42;30.10;33.10;;
69615;Laerm;56821;52.486;4.680;2023-03-01T00:08:33;34.02;31.06;39.23;;
69615;Laerm;56821;52.486;4.680;2023-03-01T00:08:44;34.70;32.24;37.66;;
69615;Laerm;56821;52.486;4.680;2023-03-01T00:08:54;35.33;31.93;38.89;;
69615;Laerm;56821;52.486;4.680;2023-03-01T00:09:05;34.37;32.39;36.96;;
69615;Laerm;56821;52.486;4.680;2023-03-01T00:09:15;35.14;32.99;37.32;;
69615;Laerm;56821;52.486;4.680;2023-03-01T00:09:25;35.38;32.45;39.61;;
69615;Laerm;56821;52.486;4.680;2023-03-01T00:09:36;34.22;31.63;38.16;;
69615;Laerm;56821;52.486;4.680;2023-03-01T00:09:46;32.89;31.08;34.72;;
69615;Laerm;56821;52.486;4.680;2023-03-01T00:09:57;33.09;30.59;36.65;;
69615;Laerm;56821;52.486;4.680;2023-03-01T00:10:07;33.86;30.85;38.09;;
69615;Laerm;56821;52.486;4.680;2023-03-01T00:10:17;33.78;30.98;36.04;;
69615;Laerm;56821;52.486;4.680;2023-03-01T00:10:28;35.49;32.44;39.91;;
69615;Laerm;56821;52.486;4.680;2023-03-01T00:10:38;33.70;30.67;36.69;;
69615;Laerm;56821;52.486;4.680;2023-03-01T00:10:48;31.64;30.25;33.29;;
69615;Laerm;56821;52.486;4.680;2023-03-01T00:11:23;34.00;31.30;38.86;;
69615;Laerm;56821;52.486;4.680;2023-03-01T00:11:34;33.49;31.01;38.19;;
69615;Laerm;56821;52.486;4.680;2023-03-01T00:11:44;34.68;30.96;37.03;;
69615;Laerm;56821;52.486;4.680;2023-03-01T00:11:55;32.81;30.46;35.30;;
69615;Laerm;56821;52.486;4.680;2023-03-01T00:12:05;32.76;30.51;35.16;;
69615;Laerm;56821;52.486;4.680;2023-03-01T00:12:16;33.93;30.23;38.33;;
69615;Laerm;56821;52.486;4.680;2023-03-01T00:12:26;31.25;29.31;34.28;;
69615;Laerm;56821;52.486;4.680;2023-03-01T00:12:37;31.08;29.39;34.28;;
69615;Laerm;56821;52.486;4.680;2023-03-01T00:12:47;30.79;29.46;32.10;;
69615;Laerm;56821;52.486;4.680;2023-03-01T00:12:58;31.10;29.26;32.87;;
69615;Laerm;56821;52.486;4.680;2023-03-01T00:13:08;32.86;30.51;35.72;;
69615;Laerm;56821;52.486;4.680;2023-03-01T00:13:18;35.03;31.53;38.48;;
69615;Laerm;56821;52.486;4.680;2023-03-01T00:13:29;35.65;32.99;37.88;;
69615;Laerm;56821;52.486;4.680;2023-03-01T00:13:40;35.60;32.54;40.01;;
69615;Laerm;56821;52.486;4.680;2023-03-01T00:13:51;34.80;31.94;38.19;;
69615;Laerm;56821;52.486;4.680;2023-03-01T00:14:02;34.03;30.89;37.34;;
69615;Laerm;56821;52.486;4.680;2023-03-01T00:14:14;33.23;30.93;36.72;;
69615;Laerm;56821;52.486;4.680;2023-03-01T00:14:27;33.12;30.88;35.32;;
69615;Laerm;56821;52.486;4.680;2023-03-01T00:14:37;33.59;30.79;48.34;;
69615;Laerm;56821;52.486;4.680;2023-03-01T00:14:47;35.21;32.93;37.25;;
69615;Laerm;56821;52.486;4.680;2023-03-01T00:14:57;35.58;33.32;38.58;;
69615;Laerm;56821;52.486;4.680;2023-03-01T00:15:08;35.31;32.51;38.88;;
69615;Laerm;56821;52.486;4.680;2023-03-01T00:15:18;34.20;32.29;36.53;;
69615;Laerm;56821;52.486;4.680;2023-03-01T00:15:28;34.06;31.68;36.63;;
69615;Laerm;56821;52.486;4.680;2023-03-01T00:15:39;34.91;31.85;39.72;;
69615;Laerm;56821;52.486;4.680;2023-03-01T00:15:50;37.32;32.23;39.82;;
69615;Laerm;56821;52.486;4.680;2023-03-01T00:16:09;34.56;32.05;38.58;;
69615;Laerm;56821;52.486;4.680;2023-03-01T00:16:21;32.84;29.91;37.83;;
69615;Laerm;56821;52.486;4.680;2023-03-01T00:16:33;33.59;31.22;38.39;;
69615;Laerm;56821;52.486;4.680;2023-03-01T00:16:44;33.33;30.77;37.60;;
69615;Laerm;56821;52.486;4.680;2023-03-01T00:16:54;35.72;32.99;39.72;;
69615;Laerm;56821;52.486;4.680;2023-03-01T00:17:05;33.77;31.89;36.57;;
69615;Laerm;56821;52.486;4.680;2023-03-01T00:17:15;34.68;31.78;38.67;;
69615;Laerm;56821;52.486;4.680;2023-03-01T00:17:26;33.00;31.18;34.86;;
69615;Laerm;56821;52.486;4.680;2023-03-01T00:17:37;34.01;30.68;36.83;;
69615;Laerm;56821;52.486;4.680;2023-03-01T00:17:47;36.77;33.73;39.35;;
69615;Laerm;56821;52.486;4.680;2023-03-01T00:17:57;33.38;31.44;36.32;;
69615;Laerm;56821;52.486;4.680;2023-03-01T00:18:08;33.62;31.29;38.78;;
69615;Laerm;56821;52.486;4.680;2023-03-01T00:18:18;34.70;30.84;39.90;;
69615;Laerm;56821;52.486;4.680;2023-03-01T00:18:28;36.20;31.72;41.66;;
69615;Laerm;56821;52.486;4.680;2023-03-01T00:18:39;33.46;31.42;37.44;;
69615;Laerm;56821;52.486;4.680;2023-03-01T00:18:49;33.08;30.67;36.00;;
69615;Laerm;56821;52.486;4.680;2023-03-01T00:19:00;30.51;29.08;32.33;;
69615;Laerm;56821;52.486;4.680;2023-03-01T00:19:12;32.44;30.06;34.81;;
69615;Laerm;56821;52.486;4.680;2023-03-01T00:19:23;32.29;29.79;35.53;;
69615;Laerm;56821;52.486;4.680;2023-03-01T00:19:33;34.09;31.20;39.34;;
69615;Laerm;56821;52.486;4.680;2023-03-01T00:19:43;33.64;30.55;37.91;;
69615;Laerm;56821;52.486;4.680;2023-03-01T00:19:54;33.53;31.49;36.29;;
69615;Laerm;56821;52.486;4.680;2023-03-01T00:20:04;34.93;32.99;36.76;;
69615;Laerm;56821;52.486;4.680;2023-03-01T00:20:18;33.73;31.67;37.21;;
69615;Laerm;56821;52.486;4.680;2023-03-01T00:20:28;36.02;33.65;38.66;;
69615;Laerm;56821;52.486;4.680;2023-03-01T00:20:38;34.27;32.20;36.23;;
69615;Laerm;56821;52.486;4.680;2023-03-01T00:20:49;36.21;33.34;39.26;;
69615;Laerm;56821;52.486;4.680;2023-03-01T00:21:00;35.89;33.56;38.68;;
69615;Laerm;56821;52.486;4.680;2023-03-01T00:21:10;35.78;32.99;38.64;;
69615;Laerm;56821;52.486;4.680;2023-03-01T00:21:20;33.22;31.02;35.59;;
69615;Laerm;56821;52.486;4.680;2023-03-01T00:21:32;35.20;32.14;41.99;;
69615;Laerm;56821;52.486;4.680;2023-03-01T00:21:42;33.54;31.54;37.93;;
69615;Laerm;56821;52.486;4.680;2023-03-01T00:21:53;33.54;31.48;35.31;;
69615;Laerm;56821;52.486;4.680;2023-03-01T00:22:03;33.02;30.96;35.83;;
69615;Laerm;56821;52.486;4.680;2023-03-01T00:22:13;32.64;30.75;34.71;;
69615;Laerm;56821;52.486;4.680;2023-03-01T00:22:23;32.70;30.74;35.18;;
69615;Laerm;56821;52.486;4.680;2023-03-01T00:22:34;31.73;29.72;34.11;;
69615;Laerm;56821;52.486;4.680;2023-03-01T00:22:44;30.63;29.04;34.19;;
69615;Laerm;56821;52.486;4.680;2023-03-01T00:22:54;32.85;29.61;36.37;;
69615;Laerm;56821;52.486;4.680;2023-03-01T00:23:04;33.33;30.35;37.11;;
69615;Laerm;56821;52.486;4.680;2023-03-01T00:23:14;32.46;29.77;36.16;;
69615;Laerm;56821;52.486;4.680;2023-03-01T00:23:25;32.54;29.04;36.18;;
69615;Laerm;56821;52.486;4.680;2023-03-01T00:23:36;30.76;28.63;34.95;;
69615;Laerm;56821;52.486;4.680;2023-03-01T00:23:46;30.23;28.37;35.49;;
69615;Laerm;56821;52.486;4.680;2023-03-01T00:23:58;31.08;28.79;35.17;;
69615;Laerm;56821;52.486;4.680;2023-03-01T00:24:08;32.25;29.66;35.51;;
69615;Laerm;56821;52.486;4.680;2023-03-01T00:24:19;33.00;30.97;36.00;;
69615;Laerm;56821;52.486;4.680;2023-03-01T00:24:29;33.20;31.01;36.12;;
69615;Laerm;56821;52.486;4.680;2023-03-01T00:24:40;33.44;31.83;35.37;;
69615;Laerm;56821;52.486;4.680;2023-03-01T00:24:50;33.69;31.45;36.67;;
69615;Laerm;56821;52.486;4.680;2023-03-01T00:25:00;33.91;31.62;36.94;;
69615;Laerm;56821;52.486;4.680;2023-03-01T00:25:10;34.26;32.25;36.69;;
69615;Laerm;56821;52.486;4.680;2023-03-01T00:25:20;34.73;32.48;37.27;;
69615;Laerm;56821;52.486;4.680;2023-03-01T00:25:31;34.83;31.63;37.42;;
69615;Laerm;56821;52.486;4.680;2023-03-01T00:25:41;34.71;32.32;37.00;;
69615;Laerm;56821;52.486;4.680;2023-03-01T00:25:52;34.19;31.41;39.51;;
69615;Laerm;56821;52.486;4.680;2023-03-01T00:26:05;33.20;30.32;35.44;;
69615;Laerm;56821;52.486;4.680;2023-03-01T00:26:16;34.05;31.31;36.40;;
69615;Laerm;56821;52.486;4.680;2023-03-01T00:26:28;32.85;30.42;35.55;;
69615;Laerm;56821;52.486;4.680;2023-03-01T00:26:38;33.00;31.16;35.70;;
69615;Laerm;56821;52.486;4.680;2023-03-01T00:26:48;33.52;31.32;35.91;;
69615;Laerm;56821;52.486;4.680;2023-03-01T00:26:59;34.84;32.06;37.95;;
69615;Laerm;56821;52.486;4.680;2023-03-01T00:27:09;34.61;31.84;36.82;;
69615;Laerm;56821;52.486;4.680;2023-03-01T00:27:20;35.79;33.34;38.55;;
69615;Laerm;56821;52.486;4.680;2023-03-01T00:27:30;37.42;35.83;39.13;;
69615;Laerm;56821;52.486;4.680;2023-03-01T00:27:40;34.62;31.63;38.08;;
69615;Laerm;56821;52.486;4.680;2023-03-01T00:27:50;33.87;32.21;36.05;;
69615;Laerm;56821;52.486;4.680;2023-03-01T00:28:00;33.29;31.43;36.53;;
69615;Laerm;56821;52.486;4.680;2023-03-01T00:28:11;35.15;32.19;39.61;;
69615;Laerm;56821;52.486;4.680;2023-03-01T00:28:21;34.36;31.81;39.23;;
69615;Laerm;56821;52.486;4.680;2023-03-01T00:28:31;34.43;31.82;38.54;;
69615;Laerm;56821;52.486;4.680;2023-03-01T00:28:42;36.11;33.34;39.54;;
69615;Laerm;56821;52.486;4.680;2023-03-01T00:28:52;36.13;33.50;41.18;;
69615;Laerm;56821;52.486;4.680;2023-03-01T00:29:03;33.67;31.06;37.27;;
69615;Laerm;56821;52.486;4.680;2023-03-01T00:29:14;34.49;30.67;37.44;;
69615;Laerm;56821;52.486;4.680;2023-03-01T00:29:24;35.33;33.18;37.60;;
69615;Laerm;56821;52.486;4.680;2023-03-01T00:29:34;35.25;32.16;37.72;;
69615;Laerm;56821;52.486;4.680;2023-03-01T00:29:44;35.50;32.29;39.66;;
69615;Laerm;56821;52.486;4.680;2023-03-01T00:29:55;35.20;32.41;40.12;;
69615;Laerm;56821;52.486;4.680;2023-03-01T00:30:05;33.77;32.01;36.32;;
69615;Laerm;56821;52.486;4.680;2023-03-01T00:30:16;33.10;30.50;36.10;;
69615;Laerm;56821;52.486;4.680;2023-03-01T00:30:26;32.10;30.49;33.93;;
69615;Laerm;56821;52.486;4.680;2023-03-01T00:30:36;32.87;30.23;38.29;;
69615;Laerm;56821;52.486;4.680;2023-03-01T00:30:47;35.37;32.73;37.92;;
69615;Laerm;56821;52.486;4.680;2023-03-01T00:31:02;31.89;30.35;34.71;;
69615;Laerm;56821;52.486;4.680;2023-03-01T00:31:13;31.74;29.11;37.34;;
69615;Laerm;56821;52.486;4.680;2023-03-01T00:31:25;32.15;29.36;36.51;;
69615;Laerm;56821;52.486;4.680;2023-03-01T00:31:36;31.36;29.10;35.34;;
69615;Laerm;56821;52.486;4.680;2023-03-01T00:31:46;31.24;28.96;36.50;;
69615;Laerm;56821;52.486;4.680;2023-03-01T00:31:56;30.90;28.72;35.06;;
69615;Laerm;56821;52.486;4.680;2023-03-01T00:32:06;30.78;28.66;33.32;;
69615;Laerm;56821;52.486;4.680;2023-03-01T00:32:16;32.07;30.12;36.04;;
69615;Laerm;56821;52.486;4.680;2023-03-01T00:32:27;31.42;29.51;35.42;;
69615;Laerm;56821;52.486;4.680;2023-03-01T00:32:37;32.16;29.82;35.53;;
69615;Laerm;56821;52.486;4.680;2023-03-01T00:32:47;32.63;30.75;37.03;;
69615;Laerm;56821;52.486;4.680;2023-03-01T00:32:57;30.93;29.09;33.68;;
69615;Laerm;56821;52.486;4.680;2023-03-01T00:33:07;30.86;29.01;33.81;;
69615;Laerm;56821;52.486;4.680;2023-03-01T00:33:18;30.48;28.47;35.45;;
69615;Laerm;56821;52.486;4.680;2023-03-01T00:33:28;30.67;28.92;33.91;;
69615;Laerm;56821;52.486;4.680;2023-03-01T00:33:38;31.53;29.57;33.83;;
69615;Laerm;56821;52.486;4.680;2023-03-01T00:33:51;32.09;29.56;34.73;;
69615;Laerm;56821;52.486;4.680;2023-03-01T00:34:03;32.42;30.03;34.52;;
69615;Laerm;56821;52.486;4.680;2023-03-01T00:34:13;30.89;29.10;33.45;;
69615;Laerm;56821;52.486;4.680;2023-03-01T00:34:24;30.72;29.08;32.79;;
69615;Laerm;56821;52.486;4.680;2023-03-01T00:34:34;31.44;29.29;34.15;;
69615;Laerm;56821;52.486;4.680;2023-03-01T00:34:44;33.75;31.73;36.42;;
69615;Laerm;56821;52.486;4.680;2023-03-01T00:35:04;32.46;29.61;37.25;;
69615;Laerm;56821;52.486;4.680;2023-03-01T00:35:15;32.37;29.21;36.97;;
69615;Laerm;56821;52.486;4.680;2023-03-01T00:35:25;32.07;29.99;34.42;;
69615;Laerm;56821;52.486;4.680;2023-03-01T00:35:36;30.95;28.88;34.04;;
69615;Laerm;56821;52.486;4.680;2023-03-01T00:35:46;30.39;28.95;32.61;;
69615;Laerm;56821;52.486;4.680;2023-03-01T00:35:57;32.42;29.76;34.64;;
69615;Laerm;56821;52.486;4.680;2023-03-01T00:36:08;31.62;29.30;33.81;;
69615;Laerm;56821;52.486;4.680;2023-03-01T00:36:18;30.59;28.81;32.49;;
69615;Laerm;56821;52.486;4.680;2023-03-01T00:36:31;31.78;30.41;33.14;;
69615;Laerm;56821;52.486;4.680;2023-03-01T00:36:41;32.67;30.90;35.25;;
69615;Laerm;56821;52.486;4.680;2023-03-01T00:36:51;35.18;31.87;37.74;;
69615;Laerm;56821;52.486;4.680;2023-03-01T00:37:01;35.25;32.51;38.41;;
69615;Laerm;56821;52.486;4.680;2023-03-01T00:37:15;35.42;32.66;39.73;;
69615;Laerm;56821;52.486;4.680;2023-03-01T00:37:25;33.28;30.55;37.11;;
69615;Laerm;56821;52.486;4.680;2023-03-01T00:37:35;34.40;31.83;38.12;;
69615;Laerm;56821;52.486;4.680;2023-03-01T00:37:45;36.15;32.33;47.75;;
69615;Laerm;56821;52.486;4.680;2023-03-01T00:37:57;36.32;33.20;39.47;;
69615;Laerm;56821;52.486;4.680;2023-03-01T00:38:07;37.85;33.99;41.41;;
69615;Laerm;56821;52.486;4.680;2023-03-01T00:38:18;33.36;30.17;37.14;;
69615;Laerm;56821;52.486;4.680;2023-03-01T00:38:28;33.60;30.29;37.27;;
69615;Laerm;56821;52.486;4.680;2023-03-01T00:38:39;33.57;31.24;36.03;;
69615;Laerm;56821;52.486;4.680;2023-03-01T00:38:50;33.13;31.19;35.40;;
69615;Laerm;56821;52.486;4.680;2023-03-01T00:39:00;33.57;30.69;36.40;;
69615;Laerm;56821;52.486;4.680;2023-03-01T00:39:11;36.05;32.89;39.74;;
69615;Laerm;56821;52.486;4.680;2023-03-01T00:39:22;35.56;32.69;39.03;;
69615;Laerm;56821;52.486;4.680;2023-03-01T00:39:32;32.64;30.82;36.18;;
69615;Laerm;56821;52.486;4.680;2023-03-01T00:39:43;32.07;30.56;34.17;;
69615;Laerm;56821;52.486;4.680;2023-03-01T00:39:53;31.85;29.93;34.41;;
69615;Laerm;56821;52.486;4.680;2023-03-01T00:40:03;32.33;29.90;36.35;;
69615;Laerm;56821;52.486;4.680;2023-03-01T00:40:16;33.89;30.96;40.34;;
69615;Laerm;56821;52.486;4.680;2023-03-01T00:40:26;35.17;31.88;39.61;;
69615;Laerm;56821;52.486;4.680;2023-03-01T00:40:37;32.74;30.76;34.94;;
69615;Laerm;56821;52.486;4.680;2023-03-01T00:40:47;32.81;31.18;34.26;;
69615;Laerm;56821;52.486;4.680;2023-03-01T00:41:02;33.99;31.87;35.49;;
69615;Laerm;56821;52.486;4.680;2023-03-01T00:41:13;32.85;30.61;36.10;;
69615;Laerm;56821;52.486;4.680;2023-03-01T00:41:24;32.53;30.45;35.00;;
69615;Laerm;56821;52.486;4.680;2023-03-01T00:41:36;30.61;29.16;33.22;;
69615;Laerm;56821;52.486;4.680;2023-03-01T00:41:46;30.69;29.16;33.19;;
69615;Laerm;56821;52.486;4.680;2023-03-01T00:41:56;32.40;29.32;39.29;;
69615;Laerm;56821;52.486;4.680;2023-03-01T00:42:07;34.30;30.89;37.45;;
69615;Laerm;56821;52.486;4.680;2023-03-01T00:42:17;34.60;30.68;37.97;;
69615;Laerm;56821;52.486;4.680;2023-03-01T00:42:27;31.46;29.60;33.45;;
69615;Laerm;56821;52.486;4.680;2023-03-01T00:42:37;32.39;30.66;34.59;;
69615;Laerm;56821;52.486;4.680;2023-03-01T00:42:48;31.70;29.68;35.84;;
69615;Laerm;56821;52.486;4.680;2023-03-01T00:42:58;30.91;29.03;34.09;;
69615;Laerm;56821;52.486;4.680;2023-03-01T00:43:08;32.87;30.54;36.74;;
69615;Laerm;56821;52.486;4.680;2023-03-01T00:43:19;33.25;30.78;36.19;;
69615;Laerm;56821;52.486;4.680;2023-03-01T00:43:29;30.57;29.35;32.13;;
69615;Laerm;56821;52.486;4.680;2023-03-01T00:43:39;31.50;29.92;33.29;;
69615;Laerm;56821;52.486;4.680;2023-03-01T00:43:50;32.63;30.42;35.33;;
69615;Laerm;56821;52.486;4.680;2023-03-01T00:44:00;31.44;29.48;34.25;;
69615;Laerm;56821;52.486;4.680;2023-03-01T00:44:10;31.60;29.80;33.65;;
69615;Laerm;56821;52.486;4.680;2023-03-01T00:44:20;31.06;29.00;34.51;;
69615;Laerm;56821;52.486;4.680;2023-03-01T00:44:31;30.22;27.71;33.09;;
69615;Laerm;56821;52.486;4.680;2023-03-01T00:44:41;29.70;27.93;31.55;;
69615;Laerm;56821;52.486;4.680;2023-03-01T00:44:51;30.54;29.28;32.00;;
69615;Laerm;56821;52.486;4.680;2023-03-01T00:45:02;30.19;28.79;31.80;;
69615;Laerm;56821;52.486;4.680;2023-03-01T00:45:12;30.81;29.21;33.13;;
69615;Laerm;56821;52.486;4.680;2023-03-01T00:45:23;31.54;29.50;33.77;;
69615;Laerm;56821;52.486;4.680;2023-03-01T00:45:34;33.57;30.90;37.28;;
69615;Laerm;56821;52.486;4.680;2023-03-01T00:45:44;33.85;31.36;36.47;;
69615;Laerm;56821;52.486;4.680;2023-03-01T00:45:54;33.72;30.94;36.94;;
69615;Laerm;56821;52.486;4.680;2023-03-01T00:46:05;36.47;33.80;39.10;;
69615;Laerm;56821;52.486;4.680;2023-03-01T00:46:16;33.42;30.96;36.02;;
69615;Laerm;56821;52.486;4.680;2023-03-01T00:46:27;30.66;29.27;33.07;;
69615;Laerm;56821;52.486;4.680;2023-03-01T00:46:40;30.48;28.77;32.13;;
69615;Laerm;56821;52.486;4.680;2023-03-01T00:46:50;31.23;29.30;33.92;;
69615;Laerm;56821;52.486;4.680;2023-03-01T00:47:00;32.94;30.62;36.15;;
69615;Laerm;56821;52.486;4.680;2023-03-01T00:47:10;33.58;31.30;35.79;;
69615;Laerm;56821;52.486;4.680;2023-03-01T00:47:21;31.89;29.91;34.38;;
69615;Laerm;56821;52.486;4.680;2023-03-01T00:47:31;31.11;29.25;32.91;;
69615;Laerm;56821;52.486;4.680;2023-03-01T00:47:41;30.72;29.23;32.77;;
69615;Laerm;56821;52.486;4.680;2023-03-01T00:47:51;32.29;30.47;34.54;;
69615;Laerm;56821;52.486;4.680;2023-03-01T00:48:02;35.95;32.56;38.52;;
69615;Laerm;56821;52.486;4.680;2023-03-01T00:48:12;36.32;32.88;40.36;;
69615;Laerm;56821;52.486;4.680;2023-03-01T00:48:22;35.29;32.78;37.67;;
69615;Laerm;56821;52.486;4.680;2023-03-01T00:48:33;38.57;36.07;40.98;;
69615;Laerm;56821;52.486;4.680;2023-03-01T00:48:43;36.30;33.24;39.94;;
69615;Laerm;56821;52.486;4.680;2023-03-01T00:48:54;35.20;32.49;37.42;;
69615;Laerm;56821;52.486;4.680;2023-03-01T00:49:04;33.01;30.68;36.45;;
69615;Laerm;56821;52.486;4.680;2023-03-01T00:49:14;31.77;29.83;34.31;;
69615;Laerm;56821;52.486;4.680;2023-03-01T00:49:24;32.30;29.37;39.19;;
69615;Laerm;56821;52.486;4.680;2023-03-01T00:49:37;30.72;29.47;32.74;;
69615;Laerm;56821;52.486;4.680;2023-03-01T00:49:47;32.25;29.77;37.38;;
69615;Laerm;56821;52.486;4.680;2023-03-01T00:49:58;35.37;32.54;37.97;;
69615;Laerm;56821;52.486;4.680;2023-03-01T00:50:08;37.55;35.06;39.95;;
69615;Laerm;56821;52.486;4.680;2023-03-01T00:50:18;35.47;32.90;38.73;;
69615;Laerm;56821;52.486;4.680;2023-03-01T00:50:29;34.54;32.18;38.61;;
69615;Laerm;56821;52.486;4.680;2023-03-01T00:50:39;33.90;30.45;38.89;;
69615;Laerm;56821;52.486;4.680;2023-03-01T00:50:49;33.64;31.11;35.47;;
69615;Laerm;56821;52.486;4.680;2023-03-01T00:51:39;33.42;29.72;37.31;;
69615;Laerm;56821;52.486;4.680;2023-03-01T00:51:51;32.77;30.28;34.95;;
69615;Laerm;56821;52.486;4.680;2023-03-01T00:52:01;32.18;29.77;36.28;;
69615;Laerm;56821;52.486;4.680;2023-03-01T00:52:11;32.76;31.12;34.60;;
69615;Laerm;56821;52.486;4.680;2023-03-01T00:52:22;32.25;30.13;34.76;;
69615;Laerm;56821;52.486;4.680;2023-03-01T00:52:32;32.58;30.80;35.59;;
69615;Laerm;56821;52.486;4.680;2023-03-01T00:52:42;32.32;30.16;35.44;;
69615;Laerm;56821;52.486;4.680;2023-03-01T00:52:53;31.40;29.03;33.96;;
69615;Laerm;56821;52.486;4.680;2023-03-01T00:53:04;32.70;30.22;34.91;;
69615;Laerm;56821;52.486;4.680;2023-03-01T00:53:15;34.03;30.85;38.42;;
69615;Laerm;56821;52.486;4.680;2023-03-01T00:53:25;31.96;29.87;36.92;;
69615;Laerm;56821;52.486;4.680;2023-03-01T00:53:35;32.33;29.59;34.54;;
69615;Laerm;56821;52.486;4.680;2023-03-01T00:53:46;32.95;29.95;36.61;;
69615;Laerm;56821;52.486;4.680;2023-03-01T00:53:58;30.89;28.52;36.53;;
69615;Laerm;56821;52.486;4.680;2023-03-01T00:54:08;30.75;28.82;33.35;;
69615;Laerm;56821;52.486;4.680;2023-03-01T00:54:18;31.84;29.98;34.47;;
69615;Laerm;56821;52.486;4.680;2023-03-01T00:54:29;31.42;29.29;35.51;;
69615;Laerm;56821;52.486;4.680;2023-03-01T00:54:39;31.40;28.72;36.78;;
69615;Laerm;56821;52.486;4.680;2023-03-01T00:54:51;30.78;28.82;32.24;;
69615;Laerm;56821;52.486;4.680;2023-03-01T00:55:02;30.89;29.12;33.98;;
69615;Laerm;56821;52.486;4.680;2023-03-01T00:55:12;33.01;30.58;35.17;;
69615;Laerm;56821;52.486;4.680;2023-03-01T00:55:23;32.66;30.23;35.32;;
69615;Laerm;56821;52.486;4.680;2023-03-01T00:55:33;30.52;28.78;32.65;;
69615;Laerm;56821;52.486;4.680;2023-03-01T00:55:45;31.77;29.11;34.87;;
69615;Laerm;56821;52.486;4.680;2023-03-01T00:55:56;33.71;31.87;36.11;;
69615;Laerm;56821;52.486;4.680;2023-03-01T00:56:07;32.04;29.85;35.13;;
69615;Laerm;56821;52.486;4.680;2023-03-01T00:56:19;31.82;29.60;33.90;;
69615;Laerm;56821;52.486;4.680;2023-03-01T00:56:29;33.00;30.67;35.72;;
69615;Laerm;56821;52.486;4.680;2023-03-01T00:56:40;32.19;29.90;35.85;;
69615;Laerm;56821;52.486;4.680;2023-03-01T00:56:50;32.28;29.96;35.60;;
69615;Laerm;56821;52.486;4.680;2023-03-01T00:57:00;33.67;30.87;37.41;;
69615;Laerm;56821;52.486;4.680;2023-03-01T00:57:11;35.47;31.39;38.71;;
69615;Laerm;56821;52.486;4.680;2023-03-01T00:57:21;36.93;31.62;39.71;;
69615;Laerm;56821;52.486;4.680;2023-03-01T00:57:31;32.18;30.18;35.23;;
69615;Laerm;56821;52.486;4.680;2023-03-01T00:57:42;30.49;28.82;33.68;;
69615;Laerm;56821;52.486;4.680;2023-03-01T00:57:52;32.38;30.09;34.82;;
69615;Laerm;56821;52.486;4.680;2023-03-01T00:58:02;32.72;30.40;34.92;;
69615;Laerm;56821;52.486;4.680;2023-03-01T00:58:12;35.45;31.90;38.39;;
69615;Laerm;56821;52.486;4.680;2023-03-01T00:58:23;35.84;30.90;40.54;;
69615;Laerm;56821;52.486;4.680;2023-03-01T00:58:33;32.97;29.92;40.67;;
69615;Laerm;56821;52.486;4.680;2023-03-01T00:58:44;29.72;28.00;31.31;;
69615;Laerm;56821;52.486;4.680;2023-03-01T00:58:54;29.30;28.02;30.47;;
69615;Laerm;56821;52.486;4.680;2023-03-01T00:59:04;30.44;28.25;34.46;;
69615;Laerm;56821;52.486;4.680;2023-03-01T00:59:14;33.41;30.90;35.47;;
69615;Laerm;56821;52.486;4.680;2023-03-01T00:59:25;31.41;29.20;33.22;;
69615;Laerm;56821;52.486;4.680;2023-03-01T00:59:35;31.18;29.28;32.78;;
69615;Laerm;56821;52.486;4.680;2023-03-01T00:59:45;31.61;28.91;35.75;;
69615;Laerm;56821;52.486;4.680;2023-03-01T00:59:55;32.72;29.76;36.06;;
69615;Laerm;56821;52.486;4.680;2023-03-01T01:00:06;31.66;29.78;34.65;;
69615;Laerm;56821;52.486;4.680;2023-03-01T01:00:17;31.66;29.78;34.72;;
69615;Laerm;56821;52.486;4.680;2023-03-01T01:00:27;31.91;29.17;35.33;;
69615;Laerm;56821;52.486;4.680;2023-03-01T01:00:38;32.07;29.99;36.18;;
69615;Laerm;56821;52.486;4.680;2023-03-01T01:00:48;31.25;29.55;34.64;;